Talent, Oregon
Current Conditions -  °F | °C
As of 11:53 PM on Saturday 25 Oct 2014 (Local Time) from KMFR Reporting Station
Overcast Overcast  
Wind Chill: 50°   Ceiling: 7000
Heat Index: 50°   Visibility: 10mi
Dew Point: 44°   Wind: 3mph
Humidity: 80%   Direction: 200°SSW
Pressure: 30.07"   Gusts: NA
Location:  42.25°N, 122.79°W
Report Text: KMFR 260653Z AUTO 20003KT 10SM OVC070 10/07 A3007 RMK AO2 SLP180 T01000067
Loading
Personal Weather Stations






























Interactive Weather Map
Tropical Storm Tracking
New forecast layout! Learn more

10-Day Weather Forecast

Advertisements
Track Severe Weather on mobile